Hauptseite
METAR-TAF:

METAR-TAF

Flughäfen :

Emmen, Schweiz

Militärflugplatz Emmen

Breite: 47-05-32N, Länge: 8-18-16E, Höhe: 426 m

Beobachtung

Neuester Wetterbericht von vor 29 Minuten, um 23:50 UTC
Wind 4 kt aus West/Nordwest, variierte zwischen West/Südwest und Nord
Temperatur 21°C
Luftfeuchtigkeit 83%
Luftdruck 1004 hPa
Sichtweite 10 km oder mehr
Leicht bewölkt in der Höhe von 8400 ft
Durchbrochene Bewölkung in der Höhe von 13000 ft

METAR: LSME 272350Z AUTO 30004KT 250V010 9999NDV FEW084 BKN130 21/18 Q1004 RMK

Zeit: 02:19 (00:19 UTC)


TAF: fehlend

Wetterbeobachtungen und Prognosen von mehr als 4000 Flughäfen (METAR und TAF Bericht).

Die verfügbaren Stationen werden durch gelbe und rote Markierungen auf der Karte dargestellt.

Führen Sie die Maus auf sie, um den Namen der Station zu sehen.

Darauf klicken, um die Beobachtung von Wetterbeobachtungen und Prognosen zu sehen.

Um die Karte zu ändern : klicken Sie auf den grünen Tasten mit einem schwarzen Kreuz Zum Vergrößern, auf den grünen Button mit einem Gedankenstrich zu verkleinern, oder auf die grünen Pfeile für benachbarte Karten.


METAR-TAF: